createdAt,value
2019-05-19T00:00:21.667Z,1002.63
2019-05-19T00:01:21.624Z,1002.63
2019-05-19T00:02:21.617Z,1002.66
2019-05-19T00:03:21.596Z,1002.68
2019-05-19T00:04:21.589Z,1002.65
2019-05-19T00:05:21.580Z,1002.69
2019-05-19T00:06:21.583Z,1002.70
2019-05-19T00:07:21.553Z,1002.71
2019-05-19T00:08:21.548Z,1002.67
2019-05-19T00:09:21.535Z,1002.75
2019-05-19T00:10:21.521Z,1002.66
2019-05-19T00:11:21.531Z,1002.66
2019-05-19T00:12:21.505Z,1002.70
2019-05-19T00:13:21.497Z,1002.71
2019-05-19T00:14:21.480Z,1002.69
2019-05-19T00:15:21.473Z,1002.66
2019-05-19T00:16:21.477Z,1002.71
2019-05-19T00:17:21.455Z,1002.74
2019-05-19T00:18:21.447Z,1002.68
2019-05-19T00:19:26.615Z,1002.69
2019-05-19T00:20:22.416Z,1002.68
2019-05-19T00:21:21.424Z,1002.66
2019-05-19T00:22:21.400Z,1002.70
2019-05-19T00:23:21.386Z,1002.72
2019-05-19T00:24:21.380Z,1002.72
2019-05-19T00:25:21.385Z,1002.70
2019-05-19T00:26:21.368Z,1002.68
2019-05-19T00:27:21.347Z,1002.69
2019-05-19T00:28:21.339Z,1002.76
2019-05-19T00:29:21.331Z,1002.68
2019-05-19T00:30:21.314Z,1002.73
2019-05-19T00:31:21.315Z,1002.73
2019-05-19T00:32:21.298Z,1002.72
2019-05-19T00:33:21.277Z,1002.77
2019-05-19T00:34:21.288Z,1002.76
2019-05-19T00:35:21.272Z,1002.73
2019-05-19T00:36:21.266Z,1002.76
2019-05-19T00:37:21.243Z,1002.72
2019-05-19T00:38:21.226Z,1002.80
2019-05-19T00:39:21.222Z,1002.73
2019-05-19T00:40:21.207Z,1002.71
2019-05-19T00:41:21.223Z,1002.69
2019-05-19T00:42:21.183Z,1002.76
2019-05-19T00:43:21.173Z,1002.74
2019-05-19T00:44:21.168Z,1002.66
2019-05-19T00:45:21.151Z,1002.75
2019-05-19T00:46:21.157Z,1002.70
2019-05-19T00:47:21.129Z,1002.72
2019-05-19T00:48:21.121Z,1002.74
2019-05-19T00:49:21.109Z,1002.68
2019-05-19T00:50:21.103Z,1002.62
2019-05-19T00:51:21.092Z,1002.65
2019-05-19T00:52:21.092Z,1002.62
2019-05-19T00:53:21.069Z,1002.61
2019-05-19T00:54:21.059Z,1002.58
2019-05-19T00:55:21.048Z,1002.57
2019-05-19T00:56:21.047Z,1002.58
2019-05-19T00:57:21.045Z,1002.59
2019-05-19T00:58:21.016Z,1002.57
2019-05-19T00:59:21.013Z,1002.62
2019-05-19T01:00:20.991Z,1002.60
2019-05-19T01:01:20.983Z,1002.58
2019-05-19T01:02:20.985Z,1002.60
2019-05-19T01:03:20.972Z,1002.57
2019-05-19T01:04:20.952Z,1002.54
2019-05-19T01:05:21.000Z,1002.54
2019-05-19T01:06:20.931Z,1002.55
2019-05-19T01:07:20.939Z,1002.49
2019-05-19T01:08:20.909Z,1002.57
2019-05-19T01:09:20.898Z,1002.53
2019-05-19T01:10:20.887Z,1002.51
2019-05-19T01:11:20.879Z,1002.53
2019-05-19T01:12:20.881Z,1002.52
2019-05-19T01:13:20.861Z,1002.52
2019-05-19T01:14:20.844Z,1002.45
2019-05-19T01:15:20.835Z,1002.53
2019-05-19T01:16:20.844Z,1002.50
2019-05-19T01:17:20.831Z,1002.52
2019-05-19T01:18:20.802Z,1002.54
2019-05-19T01:19:20.789Z,1002.51
2019-05-19T01:20:20.782Z,1002.48
2019-05-19T01:21:20.773Z,1002.51
2019-05-19T01:22:20.779Z,1002.48
2019-05-19T01:23:20.746Z,1002.45
2019-05-19T01:24:20.741Z,1002.46
2019-05-19T01:25:20.730Z,1002.46
2019-05-19T01:26:20.718Z,1002.48
2019-05-19T01:27:20.729Z,1002.44
2019-05-19T01:28:20.696Z,1002.45
2019-05-19T01:29:20.683Z,1002.46
2019-05-19T01:30:20.680Z,1002.46
2019-05-19T01:31:20.705Z,1002.48
2019-05-19T01:32:20.666Z,1002.47
2019-05-19T01:33:20.644Z,1002.48
2019-05-19T01:34:20.648Z,1002.46
2019-05-19T01:35:20.625Z,1002.51
2019-05-19T01:36:20.611Z,1002.46
2019-05-19T01:37:20.614Z,1002.45
2019-05-19T01:38:20.587Z,1002.48
2019-05-19T01:39:20.580Z,1002.48
2019-05-19T01:40:20.570Z,1002.46
2019-05-19T01:41:20.566Z,1002.48
2019-05-19T01:42:20.565Z,1002.51
2019-05-19T01:43:20.533Z,1002.50
2019-05-19T01:44:20.528Z,1002.46
2019-05-19T01:45:20.517Z,1002.46
2019-05-19T01:46:20.503Z,1002.46
2019-05-19T01:47:20.513Z,1002.47
2019-05-19T01:48:20.485Z,1002.36
2019-05-19T01:49:20.473Z,1002.40
2019-05-19T01:50:20.516Z,1002.40
2019-05-19T01:51:20.452Z,1002.44
2019-05-19T01:52:20.455Z,1002.44
2019-05-19T01:53:20.435Z,1002.38
2019-05-19T01:54:20.450Z,1002.37
2019-05-19T01:55:20.412Z,1002.39
2019-05-19T01:56:20.395Z,1002.37
2019-05-19T01:57:20.403Z,1002.32
2019-05-19T01:58:20.395Z,1002.36
2019-05-19T01:59:20.365Z,1002.34
2019-05-19T02:00:20.358Z,1002.36
2019-05-19T02:01:20.357Z,1002.39
2019-05-19T02:02:20.350Z,1002.41
2019-05-19T02:03:20.324Z,1002.39
2019-05-19T02:04:20.328Z,1002.39
2019-05-19T02:05:20.309Z,1002.37
2019-05-19T02:06:20.296Z,1002.39
2019-05-19T02:07:20.298Z,1002.38
2019-05-19T02:08:20.269Z,1002.39
2019-05-19T02:09:20.278Z,1002.40
2019-05-19T02:10:20.257Z,1002.34
2019-05-19T02:11:20.252Z,1002.32
2019-05-19T02:12:20.246Z,1002.36
2019-05-19T02:13:20.220Z,1002.40
2019-05-19T02:14:20.216Z,1002.29
2019-05-19T02:15:20.203Z,1002.39
2019-05-19T02:16:20.190Z,1002.34
2019-05-19T02:17:20.191Z,1002.38
2019-05-19T02:18:20.175Z,1002.33
2019-05-19T02:19:20.155Z,1002.35
2019-05-19T02:20:32.295Z,1002.31
2019-05-19T02:21:21.135Z,1002.33
2019-05-19T02:22:20.144Z,1002.36
2019-05-19T02:23:20.112Z,1002.35
2019-05-19T02:24:20.102Z,1002.35
2019-05-19T02:25:20.092Z,1002.32
2019-05-19T02:26:20.085Z,1002.32
2019-05-19T02:27:20.100Z,1002.34
2019-05-19T02:28:20.064Z,1002.31
2019-05-19T02:29:20.057Z,1002.33
2019-05-19T02:30:20.046Z,1002.37
2019-05-19T02:31:20.031Z,1002.36
2019-05-19T02:32:20.039Z,1002.35
2019-05-19T02:33:20.008Z,1002.40
2019-05-19T02:34:19.998Z,1002.30
2019-05-19T02:35:19.986Z,1002.32
2019-05-19T02:36:19.980Z,1002.29
2019-05-19T02:37:19.982Z,1002.31
2019-05-19T02:38:19.958Z,1002.28
2019-05-19T02:39:19.945Z,1002.32
2019-05-19T02:40:19.943Z,1002.30
2019-05-19T02:41:19.928Z,1002.28
2019-05-19T02:42:19.925Z,1002.30
2019-05-19T02:43:19.904Z,1002.31
2019-05-19T02:44:19.893Z,1002.30
2019-05-19T02:45:19.896Z,1002.34
2019-05-19T02:46:19.872Z,1002.35
2019-05-19T02:47:19.897Z,1002.32
2019-05-19T02:48:19.852Z,1002.35
2019-05-19T02:49:19.844Z,1002.35
2019-05-19T02:50:19.830Z,1002.35
2019-05-19T02:51:19.814Z,1002.37
2019-05-19T02:52:19.810Z,1002.35
2019-05-19T02:53:19.824Z,1002.36
2019-05-19T02:54:19.791Z,1002.36
2019-05-19T02:55:19.785Z,1002.36
2019-05-19T02:56:19.767Z,1002.37
2019-05-19T02:57:19.759Z,1002.31
2019-05-19T02:58:19.762Z,1002.40
2019-05-19T02:59:19.735Z,1002.37
2019-05-19T03:00:19.728Z,1002.34
2019-05-19T03:01:19.710Z,1002.36
2019-05-19T03:02:19.711Z,1002.36
2019-05-19T03:03:19.702Z,1002.28
2019-05-19T03:04:19.679Z,1002.27
2019-05-19T03:05:19.679Z,1002.25
2019-05-19T03:06:19.669Z,1002.22
2019-05-19T03:07:19.650Z,1002.22
2019-05-19T03:08:19.656Z,1002.21
2019-05-19T03:09:19.638Z,1002.17
2019-05-19T03:10:19.623Z,1002.19
2019-05-19T03:11:19.606Z,1002.17
2019-05-19T03:12:19.602Z,1002.17
2019-05-19T03:13:19.597Z,1002.16
2019-05-19T03:14:19.575Z,1002.20
2019-05-19T03:15:19.567Z,1002.23
2019-05-19T03:16:19.552Z,1002.23
2019-05-19T03:17:19.543Z,1002.28
2019-05-19T03:18:19.546Z,1002.28
2019-05-19T03:19:19.522Z,1002.32
2019-05-19T03:20:19.540Z,1002.32
2019-05-19T03:21:19.502Z,1002.38
2019-05-19T03:22:19.493Z,1002.38
2019-05-19T03:23:19.498Z,1002.42
2019-05-19T03:24:19.473Z,1002.45
2019-05-19T03:25:19.459Z,1002.46
2019-05-19T03:26:19.457Z,1002.46
2019-05-19T03:27:19.448Z,1002.39
2019-05-19T03:28:19.442Z,1002.46
2019-05-19T03:29:19.427Z,1002.40
2019-05-19T03:30:19.414Z,1002.42
2019-05-19T03:31:19.400Z,1002.45
2019-05-19T03:32:19.997Z,1002.45
2019-05-19T03:33:19.387Z,1002.43
2019-05-19T03:34:19.364Z,1002.46
2019-05-19T03:35:19.395Z,1002.44
2019-05-19T03:36:19.347Z,1002.47
2019-05-19T03:37:19.335Z,1002.45
2019-05-19T03:38:19.339Z,1002.41
2019-05-19T03:39:19.311Z,1002.46
2019-05-19T03:40:19.309Z,1002.42
2019-05-19T03:41:19.295Z,1002.46
2019-05-19T03:42:19.280Z,1002.45
2019-05-19T03:43:19.291Z,1002.47
2019-05-19T03:44:19.261Z,1002.44
2019-05-19T03:45:19.251Z,1002.47
2019-05-19T03:46:19.239Z,1002.41
2019-05-19T03:47:19.230Z,1002.42
2019-05-19T03:48:19.230Z,1002.47
2019-05-19T03:49:19.204Z,1002.46
2019-05-19T03:50:19.198Z,1002.45
2019-05-19T03:51:29.990Z,1002.47
2019-05-19T03:52:20.179Z,1002.46
2019-05-19T03:53:19.177Z,1002.49
2019-05-19T03:54:19.156Z,1002.48
2019-05-19T03:55:19.142Z,1002.47
2019-05-19T03:56:19.216Z,1002.47
2019-05-19T03:57:19.699Z,1002.47
2019-05-19T03:58:19.125Z,1002.51
2019-05-19T03:59:19.113Z,1002.46
2019-05-19T04:00:19.088Z,1002.49
2019-05-19T04:01:19.079Z,1002.51
2019-05-19T04:02:19.071Z,1002.48
2019-05-19T04:03:19.093Z,1002.46
2019-05-19T04:04:19.047Z,1002.50
2019-05-19T04:05:19.044Z,1002.53
2019-05-19T04:06:19.034Z,1002.52
2019-05-19T04:07:19.019Z,1002.54
2019-05-19T04:08:19.007Z,1002.58
2019-05-19T04:09:19.009Z,1002.54
2019-05-19T04:10:19.024Z,1002.56
2019-05-19T04:11:18.971Z,1002.55
2019-05-19T04:12:18.962Z,1002.55
2019-05-19T04:13:18.953Z,1002.52
2019-05-19T04:14:18.963Z,1002.56
2019-05-19T04:15:18.931Z,1002.56
2019-05-19T04:16:18.924Z,1002.56
2019-05-19T04:17:18.911Z,1002.58
2019-05-19T04:18:18.902Z,1002.59
2019-05-19T04:19:18.909Z,1002.59
2019-05-19T04:20:18.880Z,1002.58
2019-05-19T04:21:18.866Z,1002.61
2019-05-19T04:22:18.868Z,1002.62
2019-05-19T04:23:18.847Z,1002.62
2019-05-19T04:24:18.865Z,1002.66
2019-05-19T04:25:18.827Z,1002.64
2019-05-19T04:26:18.813Z,1002.63
2019-05-19T04:27:18.815Z,1002.59
2019-05-19T04:28:18.792Z,1002.62
2019-05-19T04:29:18.801Z,1002.61
2019-05-19T04:30:18.780Z,1002.59
2019-05-19T04:31:18.761Z,1002.60
2019-05-19T04:32:18.751Z,1002.54
2019-05-19T04:33:18.742Z,1002.56
2019-05-19T04:34:18.745Z,1002.56
2019-05-19T04:35:18.720Z,1002.59
2019-05-19T04:36:18.712Z,1002.61
2019-05-19T04:37:18.708Z,1002.59
2019-05-19T04:38:18.693Z,1002.56
2019-05-19T04:39:18.692Z,1002.61
2019-05-19T04:40:18.665Z,1002.60
2019-05-19T04:41:18.652Z,1002.62
2019-05-19T04:42:18.646Z,1002.59
2019-05-19T04:43:18.635Z,1002.59
2019-05-19T04:44:18.642Z,1002.61
2019-05-19T04:45:18.621Z,1002.59
2019-05-19T04:46:18.603Z,1002.57
2019-05-19T04:47:18.589Z,1002.53
2019-05-19T04:48:18.582Z,1002.56
2019-05-19T04:49:18.579Z,1002.55
2019-05-19T04:50:18.560Z,1002.56
2019-05-19T04:51:18.554Z,1002.50
2019-05-19T04:52:18.538Z,1002.50
2019-05-19T04:53:18.526Z,1002.53
2019-05-19T04:54:18.534Z,1002.54
2019-05-19T04:55:18.523Z,1002.51
2019-05-19T04:56:19.843Z,1002.53
2019-05-19T04:57:18.507Z,1002.49
2019-05-19T04:58:18.482Z,1002.47
2019-05-19T04:59:18.476Z,1002.49
2019-05-19T05:00:18.471Z,1002.46
2019-05-19T05:01:18.522Z,1002.49
2019-05-19T05:02:18.433Z,1002.48
2019-05-19T05:03:18.423Z,1002.47
2019-05-19T05:04:18.427Z,1002.47
2019-05-19T05:05:18.399Z,1002.46
2019-05-19T05:06:18.392Z,1002.44
2019-05-19T05:07:18.376Z,1002.44
2019-05-19T05:08:29.851Z,1002.45
2019-05-19T05:09:19.366Z,1002.43
2019-05-19T05:10:18.347Z,1002.43
2019-05-19T05:11:18.336Z,1002.49
2019-05-19T05:12:18.320Z,1002.41
2019-05-19T05:13:18.310Z,1002.45
2019-05-19T05:14:18.317Z,1002.42
2019-05-19T05:15:18.292Z,1002.36
2019-05-19T05:16:18.283Z,1002.38
2019-05-19T05:17:18.279Z,1002.42
2019-05-19T05:18:18.260Z,1002.40
2019-05-19T05:19:18.260Z,1002.41
2019-05-19T05:20:18.240Z,1002.44
2019-05-19T05:21:18.224Z,1002.40
2019-05-19T05:22:21.952Z,1002.37
2019-05-19T05:23:18.208Z,1002.40
2019-05-19T05:24:18.210Z,1002.41
2019-05-19T05:25:18.183Z,1002.37
2019-05-19T05:26:18.178Z,1002.36
2019-05-19T05:27:19.057Z,1002.36
2019-05-19T05:28:18.155Z,1002.43
2019-05-19T05:29:18.158Z,1002.36
2019-05-19T05:30:18.129Z,1002.41
2019-05-19T05:31:18.123Z,1002.41
2019-05-19T05:32:18.112Z,1002.46
2019-05-19T05:33:18.104Z,1002.46
2019-05-19T05:34:18.104Z,1002.45
2019-05-19T05:35:18.127Z,1002.49
2019-05-19T05:36:18.069Z,1002.50
2019-05-19T05:37:18.057Z,1002.52
2019-05-19T05:38:18.053Z,1002.52
2019-05-19T05:39:18.057Z,1002.54
2019-05-19T05:40:18.025Z,1002.56
2019-05-19T05:41:18.017Z,1002.55
2019-05-19T05:42:18.023Z,1002.59
2019-05-19T05:43:17.992Z,1002.56
2019-05-19T05:44:18.006Z,1002.53
2019-05-19T05:45:17.974Z,1002.53
2019-05-19T05:46:17.968Z,1002.54
2019-05-19T05:47:17.955Z,1002.53
2019-05-19T05:48:17.939Z,1002.53
2019-05-19T05:49:17.945Z,1002.54
2019-05-19T05:50:17.920Z,1002.54
2019-05-19T05:51:17.914Z,1002.54
2019-05-19T05:52:17.900Z,1002.55
2019-05-19T05:53:17.895Z,1002.54
2019-05-19T05:54:17.901Z,1002.61
2019-05-19T05:55:17.866Z,1002.59
2019-05-19T05:56:17.859Z,1002.58
2019-05-19T05:57:17.851Z,1002.58
2019-05-19T05:58:17.841Z,1002.54
2019-05-19T05:59:17.840Z,1002.53
2019-05-19T06:00:17.815Z,1002.54
2019-05-19T06:01:17.807Z,1002.57
2019-05-19T06:02:17.802Z,1002.51
2019-05-19T06:03:17.782Z,1002.45
2019-05-19T06:04:17.788Z,1002.54
2019-05-19T06:05:17.767Z,1002.51
2019-05-19T06:06:17.750Z,1002.50
2019-05-19T06:07:17.739Z,1002.51
2019-05-19T06:08:17.731Z,1002.52
2019-05-19T06:09:17.750Z,1002.51
2019-05-19T06:10:17.711Z,1002.52
2019-05-19T06:11:17.709Z,1002.57
2019-05-19T06:12:17.687Z,1002.52
2019-05-19T06:13:17.679Z,1002.56
2019-05-19T06:14:17.675Z,1002.53
2019-05-19T06:15:17.661Z,1002.60
2019-05-19T06:16:17.644Z,1002.56
2019-05-19T06:17:17.670Z,1002.54
2019-05-19T06:18:17.661Z,1002.54
2019-05-19T06:19:17.630Z,1002.56
2019-05-19T06:20:17.599Z,1002.53
2019-05-19T06:21:17.618Z,1002.56
2019-05-19T06:22:17.586Z,1002.55
2019-05-19T06:23:17.575Z,1002.58
2019-05-19T06:24:17.572Z,1002.61
2019-05-19T06:25:17.551Z,1002.63
2019-05-19T06:26:17.539Z,1002.60
2019-05-19T06:27:17.534Z,1002.56
2019-05-19T06:28:17.517Z,1002.60
2019-05-19T06:29:17.533Z,1002.62
2019-05-19T06:30:17.533Z,1002.58
2019-05-19T06:31:17.505Z,1002.59
2019-05-19T06:32:17.473Z,1002.62
2019-05-19T06:33:17.463Z,1002.61
2019-05-19T06:34:17.549Z,1002.56
2019-05-19T06:35:22.153Z,1002.58
2019-05-19T06:36:17.527Z,1002.61
2019-05-19T06:37:17.536Z,1002.54
2019-05-19T06:38:17.493Z,1002.54
2019-05-19T06:39:17.497Z,1002.52
2019-05-19T06:40:17.412Z,1002.47
2019-05-19T06:41:17.379Z,1002.49
2019-05-19T06:42:17.416Z,1002.51
2019-05-19T06:43:17.358Z,1002.46
2019-05-19T06:44:17.377Z,1002.45
2019-05-19T06:45:17.340Z,1002.45
2019-05-19T06:46:17.329Z,1002.44
2019-05-19T06:47:17.344Z,1002.43
2019-05-19T06:48:17.302Z,1002.45
2019-05-19T06:49:18.023Z,1002.42
2019-05-19T06:50:17.298Z,1002.44
2019-05-19T06:51:17.274Z,1002.43
2019-05-19T06:52:17.280Z,1002.43
2019-05-19T06:53:17.253Z,1002.49
2019-05-19T06:54:17.267Z,1002.43
2019-05-19T06:55:17.246Z,1002.48
2019-05-19T06:56:17.216Z,1002.42
2019-05-19T06:57:17.217Z,1002.43
2019-05-19T06:58:17.271Z,1002.45
2019-05-19T06:59:17.185Z,1002.43
2019-05-19T07:00:17.195Z,1002.41
2019-05-19T07:01:18.059Z,1002.47
2019-05-19T07:02:17.162Z,1002.49
2019-05-19T07:03:17.183Z,1002.44
2019-05-19T07:04:17.174Z,1002.44
2019-05-19T07:05:17.143Z,1002.41
2019-05-19T07:06:17.128Z,1002.38
2019-05-19T07:07:17.113Z,1002.39
2019-05-19T07:08:17.107Z,1002.40
2019-05-19T07:09:17.138Z,1002.42
2019-05-19T07:10:17.100Z,1002.40
2019-05-19T07:11:17.070Z,1002.34
2019-05-19T07:12:17.053Z,1002.39
2019-05-19T07:13:17.045Z,1002.40
2019-05-19T07:14:17.029Z,1002.34
2019-05-19T07:15:17.046Z,1002.39
2019-05-19T07:16:17.014Z,1002.41
2019-05-19T07:17:16.999Z,1002.35
2019-05-19T07:18:17.022Z,1002.33
2019-05-19T07:19:16.984Z,1002.40
2019-05-19T07:20:16.977Z,1002.40
2019-05-19T07:21:16.976Z,1002.35
2019-05-19T07:22:16.950Z,1002.32
2019-05-19T07:23:27.732Z,1002.34
2019-05-19T07:24:17.927Z,1002.37
2019-05-19T07:25:16.924Z,1002.36
2019-05-19T07:26:16.910Z,1002.33
2019-05-19T07:27:16.895Z,1002.30
2019-05-19T07:28:16.882Z,1002.35
2019-05-19T07:29:16.885Z,1002.31
2019-05-19T07:30:16.870Z,1002.32
2019-05-19T07:31:16.862Z,1002.24
2019-05-19T07:32:16.841Z,1002.22
2019-05-19T07:33:16.840Z,1002.24
2019-05-19T07:34:16.814Z,1002.33
2019-05-19T07:35:16.817Z,1002.30
2019-05-19T07:36:16.806Z,1002.29
2019-05-19T07:37:16.781Z,1002.31
2019-05-19T07:38:16.778Z,1002.23
2019-05-19T07:39:16.765Z,1002.24
2019-05-19T07:40:16.774Z,1002.27
2019-05-19T07:41:16.748Z,1002.26
2019-05-19T07:42:16.736Z,1002.20
2019-05-19T07:43:16.788Z,1002.26
2019-05-19T07:44:16.704Z,1002.26
2019-05-19T07:45:16.717Z,1002.27
2019-05-19T07:46:16.690Z,1002.28
2019-05-19T07:47:16.679Z,1002.20
2019-05-19T07:48:16.697Z,1002.23
2019-05-19T07:49:16.660Z,1002.21
2019-05-19T07:50:16.690Z,1002.20
2019-05-19T07:51:16.644Z,1002.13
2019-05-19T07:52:16.662Z,1002.24
2019-05-19T07:53:16.661Z,1002.18
2019-05-19T07:54:16.607Z,1002.22
2019-05-19T07:55:16.609Z,1002.17
2019-05-19T07:56:16.586Z,1002.20
2019-05-19T07:57:16.616Z,1002.21
2019-05-19T07:58:16.603Z,1002.18
2019-05-19T07:59:16.565Z,1002.20
2019-05-19T08:00:16.556Z,1002.16
2019-05-19T08:01:16.652Z,1002.18
2019-05-19T08:02:16.517Z,1002.13
2019-05-19T08:03:16.521Z,1002.16
2019-05-19T08:04:16.498Z,1002.11
2019-05-19T08:05:16.506Z,1002.11
2019-05-19T08:06:16.482Z,1002.11
2019-05-19T08:07:16.471Z,1002.10
2019-05-19T08:08:16.518Z,1002.06
2019-05-19T08:09:16.464Z,1002.05
2019-05-19T08:10:16.517Z,1002.14
2019-05-19T08:11:16.430Z,1002.12
2019-05-19T08:12:16.416Z,1002.09
2019-05-19T08:13:16.408Z,1002.11
2019-05-19T08:14:16.394Z,1002.11
2019-05-19T08:15:16.399Z,1002.03
2019-05-19T08:16:16.374Z,1002.05
2019-05-19T08:17:16.370Z,1002.06
2019-05-19T08:18:16.358Z,1002.03
2019-05-19T08:19:16.470Z,1002.08
2019-05-19T08:20:16.365Z,1002.05
2019-05-19T08:21:16.331Z,1002.07
2019-05-19T08:22:16.326Z,1002.01
2019-05-19T08:23:16.320Z,1002.02
2019-05-19T08:24:16.291Z,1002.05
2019-05-19T08:25:16.375Z,1002.03
2019-05-19T08:26:16.307Z,1002.02
2019-05-19T08:27:16.366Z,1002.01
2019-05-19T08:28:16.381Z,1002.04
2019-05-19T08:29:16.329Z,1002.00
2019-05-19T08:30:16.360Z,1001.92
2019-05-19T08:31:16.233Z,1002.00
2019-05-19T08:32:16.203Z,1001.93
2019-05-19T08:33:16.211Z,1001.91
2019-05-19T08:34:16.220Z,1001.93
2019-05-19T08:35:16.220Z,1001.89
2019-05-19T08:36:16.207Z,1001.90
2019-05-19T08:37:16.213Z,1001.89
2019-05-19T08:38:16.147Z,1001.92
2019-05-19T08:39:16.154Z,1001.90
2019-05-19T08:40:16.160Z,1001.89
2019-05-19T08:41:16.112Z,1001.88
2019-05-19T08:42:16.157Z,1001.84
2019-05-19T08:43:16.094Z,1001.86
2019-05-19T08:44:16.075Z,1001.90
2019-05-19T08:45:16.098Z,1001.87
2019-05-19T08:46:16.117Z,1001.85
2019-05-19T08:47:16.128Z,1001.82
2019-05-19T08:48:16.033Z,1001.86
2019-05-19T08:49:16.032Z,1001.87
2019-05-19T08:50:16.198Z,1001.83
2019-05-19T08:51:16.018Z,1001.86
2019-05-19T08:52:16.008Z,1001.87
2019-05-19T08:53:15.977Z,1001.89
2019-05-19T08:54:18.853Z,1001.88
2019-05-19T08:55:15.973Z,1001.86
2019-05-19T08:56:15.969Z,1001.87
2019-05-19T08:57:15.954Z,1001.85
2019-05-19T08:58:15.932Z,1001.82
2019-05-19T08:59:15.931Z,1001.84
2019-05-19T09:00:15.924Z,1001.80
2019-05-19T09:01:15.897Z,1001.85
2019-05-19T09:02:15.884Z,1001.83
2019-05-19T09:03:15.874Z,1001.86
2019-05-19T09:04:15.885Z,1001.80
2019-05-19T09:05:15.872Z,1001.79
2019-05-19T09:06:15.842Z,1001.82
2019-05-19T09:07:15.848Z,1001.85
2019-05-19T09:08:15.824Z,1001.81
2019-05-19T09:09:15.813Z,1001.88
2019-05-19T09:10:15.824Z,1001.94
2019-05-19T09:11:15.791Z,1001.84
2019-05-19T09:12:15.778Z,1001.87
2019-05-19T09:13:15.772Z,1001.86
2019-05-19T09:14:15.758Z,1001.81
2019-05-19T09:15:15.762Z,1001.87
2019-05-19T09:16:15.737Z,1001.81
2019-05-19T09:17:15.725Z,1001.82
2019-05-19T09:18:15.717Z,1001.77
2019-05-19T09:19:15.715Z,1001.88
2019-05-19T09:20:15.708Z,1001.81
2019-05-19T09:21:15.688Z,1001.78
2019-05-19T09:22:15.680Z,1001.81
2019-05-19T09:23:15.669Z,1001.80
2019-05-19T09:24:29.579Z,1001.77
2019-05-19T09:25:16.660Z,1001.78
2019-05-19T09:26:15.643Z,1001.76
2019-05-19T09:27:15.620Z,1001.74
2019-05-19T09:28:15.612Z,1001.76
2019-05-19T09:29:15.649Z,1001.75
2019-05-19T09:30:15.610Z,1001.76
2019-05-19T09:31:15.599Z,1001.77
2019-05-19T09:32:15.569Z,1001.72
2019-05-19T09:33:15.570Z,1001.75
2019-05-19T09:34:15.547Z,1001.67
2019-05-19T09:35:15.556Z,1001.75
2019-05-19T09:36:15.531Z,1001.73
2019-05-19T09:37:15.525Z,1001.69
2019-05-19T09:38:15.517Z,1001.74
2019-05-19T09:39:15.540Z,1001.74
2019-05-19T09:40:15.503Z,1001.65
2019-05-19T09:41:15.476Z,1001.63
2019-05-19T09:42:15.468Z,1001.65
2019-05-19T09:43:15.512Z,1001.73
2019-05-19T09:46:32.177Z,1001.63
2019-05-19T09:47:31.147Z,1001.56
2019-05-19T09:48:31.129Z,1001.64
2019-05-19T09:49:31.142Z,1001.59
2019-05-19T09:50:31.125Z,1001.64
2019-05-19T09:51:31.102Z,1001.60
2019-05-19T09:52:31.097Z,1001.58
2019-05-19T09:53:31.081Z,1001.57
2019-05-19T09:54:44.194Z,1001.50
2019-05-19T09:55:32.155Z,1001.61
2019-05-19T09:56:31.237Z,1001.60
2019-05-19T09:57:31.044Z,1001.56
2019-05-19T09:58:31.033Z,1001.58
2019-05-19T09:59:31.013Z,1001.55
2019-05-19T10:00:31.090Z,1001.55
2019-05-19T10:01:32.216Z,1001.47
2019-05-19T10:02:31.884Z,1001.54
2019-05-19T10:03:30.972Z,1001.55
2019-05-19T10:04:30.960Z,1001.58
2019-05-19T10:05:30.943Z,1001.56
2019-05-19T10:06:31.221Z,1001.55
2019-05-19T10:07:30.927Z,1001.54
2019-05-19T10:08:30.918Z,1001.57
2019-05-19T10:09:30.910Z,1001.51
2019-05-19T10:10:30.896Z,1001.52
2019-05-19T10:11:30.927Z,1001.52
2019-05-19T10:12:30.871Z,1001.57
2019-05-19T10:13:30.864Z,1001.48
2019-05-19T10:14:30.849Z,1001.59
2019-05-19T10:15:30.842Z,1001.55
2019-05-19T10:16:30.840Z,1001.53
2019-05-19T10:17:30.828Z,1001.48
2019-05-19T10:18:30.805Z,1001.45
2019-05-19T10:19:30.797Z,1001.46
2019-05-19T10:20:30.788Z,1001.45
2019-05-19T10:21:30.793Z,1001.53
2019-05-19T10:22:30.781Z,1001.51
2019-05-19T10:23:30.751Z,1001.52
2019-05-19T10:24:30.750Z,1001.53
2019-05-19T10:25:30.774Z,1001.48
2019-05-19T10:26:30.731Z,1001.45
2019-05-19T10:27:30.723Z,1001.45
2019-05-19T10:28:30.721Z,1001.48
2019-05-19T10:29:30.689Z,1001.47
2019-05-19T10:30:30.673Z,1001.44
2019-05-19T10:31:30.679Z,1001.47
2019-05-19T10:32:30.679Z,1001.42
2019-05-19T10:33:30.640Z,1001.37
2019-05-19T10:34:30.633Z,1001.37
2019-05-19T10:35:30.629Z,1001.38
2019-05-19T10:36:30.648Z,1001.34
2019-05-19T10:37:30.599Z,1001.35
2019-05-19T10:38:30.616Z,1001.42
2019-05-19T10:39:30.604Z,1001.33
2019-05-19T10:40:30.567Z,1001.30
2019-05-19T10:41:30.595Z,1001.35
2019-05-19T10:42:30.543Z,1001.36
2019-05-19T10:43:30.535Z,1001.32
2019-05-19T10:44:30.531Z,1001.29
2019-05-19T10:45:30.527Z,1001.25
2019-05-19T10:46:30.512Z,1001.33
2019-05-19T10:47:30.489Z,1001.30
2019-05-19T10:48:30.478Z,1001.32
2019-05-19T10:49:30.471Z,1001.29
2019-05-19T10:50:30.479Z,1001.27
2019-05-19T10:51:30.526Z,1001.33
2019-05-19T10:52:30.469Z,1001.26
2019-05-19T10:53:30.447Z,1001.23
2019-05-19T10:54:30.418Z,1001.24
2019-05-19T10:55:36.453Z,1001.21
2019-05-19T10:56:31.524Z,1001.26
2019-05-19T10:57:30.388Z,1001.19
2019-05-19T10:58:30.483Z,1001.14
2019-05-19T10:59:30.369Z,1001.11
2019-05-19T11:00:30.347Z,1001.15
2019-05-19T11:01:30.389Z,1001.17
2019-05-19T11:02:30.328Z,1001.26
2019-05-19T11:03:30.318Z,1001.13
2019-05-19T11:04:30.314Z,1001.15
2019-05-19T11:05:30.318Z,1001.18
2019-05-19T11:06:30.297Z,1001.13
2019-05-19T11:07:30.281Z,1001.16
2019-05-19T11:08:30.269Z,1001.14
2019-05-19T11:09:30.249Z,1001.09
2019-05-19T11:10:30.249Z,1001.12
2019-05-19T11:11:30.250Z,1001.08
2019-05-19T11:12:30.218Z,1001.12
2019-05-19T11:13:30.201Z,1001.03
2019-05-19T11:14:30.211Z,1001.14
2019-05-19T11:15:30.185Z,1001.12
2019-05-19T11:16:30.182Z,1001.16
2019-05-19T11:17:30.156Z,1001.11
2019-05-19T11:18:30.204Z,1001.10
2019-05-19T11:19:30.189Z,1001.06
2019-05-19T11:20:30.126Z,1001.10
2019-05-19T11:21:30.240Z,1001.09
2019-05-19T11:22:30.109Z,1001.04
2019-05-19T11:23:30.100Z,1001.09
2019-05-19T11:24:30.091Z,1001.06
2019-05-19T11:25:33.940Z,1001.08
2019-05-19T11:26:30.101Z,1001.07
2019-05-19T11:27:30.068Z,1001.07
2019-05-19T11:28:30.045Z,1000.98
2019-05-19T11:29:30.096Z,1000.98
2019-05-19T11:30:30.046Z,1001.00
2019-05-19T11:31:30.087Z,1000.96
2019-05-19T11:32:29.997Z,1000.98
2019-05-19T11:33:30.056Z,1000.94
2019-05-19T11:34:29.975Z,1000.94
2019-05-19T11:35:29.981Z,1000.90
2019-05-19T11:36:29.972Z,1000.87
2019-05-19T11:37:29.948Z,1000.94
2019-05-19T11:38:29.929Z,1000.90
2019-05-19T11:39:29.917Z,1000.98
2019-05-19T11:40:29.912Z,1000.91
2019-05-19T11:41:29.955Z,1000.97
2019-05-19T11:42:29.893Z,1000.93
2019-05-19T11:43:29.877Z,1000.92
2019-05-19T11:44:29.954Z,1000.91
2019-05-19T11:45:29.856Z,1000.89
2019-05-19T11:46:29.854Z,1000.86
2019-05-19T11:47:29.832Z,1000.91
2019-05-19T11:48:29.825Z,1000.87
2019-05-19T11:49:29.809Z,1000.87
2019-05-19T11:50:29.812Z,1000.76
2019-05-19T11:51:29.861Z,1000.83
2019-05-19T11:52:29.773Z,1000.86
2019-05-19T11:53:29.812Z,1000.90
2019-05-19T11:54:29.780Z,1000.88
2019-05-19T11:55:29.759Z,1000.87
2019-05-19T11:56:29.779Z,1000.88
2019-05-19T11:57:29.727Z,1000.94
2019-05-19T11:58:29.718Z,1000.85
2019-05-19T11:59:29.703Z,1000.82
2019-05-19T12:00:29.712Z,1000.83
2019-05-19T12:01:29.702Z,1000.80
2019-05-19T12:02:29.671Z,1000.76
2019-05-19T12:03:29.663Z,1000.81
2019-05-19T12:04:29.749Z,1000.74
2019-05-19T12:05:30.063Z,1000.73
2019-05-19T12:06:38.554Z,1000.69
2019-05-19T12:07:30.628Z,1000.70